createdAt,value
2016-08-08T00:00:35.827Z,84.2
2016-08-08T00:01:35.821Z,83.72
2016-08-08T00:02:35.819Z,84.16
2016-08-08T00:03:35.823Z,83.82
2016-08-08T00:04:35.815Z,84.11
2016-08-08T00:05:35.812Z,83.97
2016-08-08T00:06:35.808Z,83.72
2016-08-08T00:07:35.806Z,84.06
2016-08-08T00:08:35.810Z,84.16
2016-08-08T00:09:35.800Z,84.26
2016-08-08T00:10:35.829Z,84.35
2016-08-08T00:12:35.796Z,84.45
2016-08-08T00:13:35.790Z,84.16
2016-08-08T00:14:35.792Z,84.16
2016-08-08T00:15:35.788Z,84.26
2016-08-08T00:16:35.787Z,84.06
2016-08-08T00:17:35.786Z,84.35
2016-08-08T00:18:35.786Z,84.16
2016-08-08T00:19:35.783Z,83.78
2016-08-08T00:20:35.771Z,83.97
2016-08-08T00:21:35.773Z,84.16
2016-08-08T00:22:35.774Z,83.97
2016-08-08T00:23:35.770Z,83.68
2016-08-08T00:24:35.763Z,83.78
2016-08-08T00:25:35.765Z,84.26
2016-08-08T00:27:35.756Z,83.78
2016-08-08T00:28:35.759Z,83.59
2016-08-08T00:29:35.759Z,83.87
2016-08-08T00:30:35.752Z,84.26
2016-08-08T00:31:35.749Z,84.06
2016-08-08T00:32:35.753Z,84.45
2016-08-08T00:33:35.743Z,84.06
2016-08-08T00:34:35.739Z,84.06
2016-08-08T00:35:35.745Z,84.06
2016-08-08T00:36:35.739Z,84.45
2016-08-08T00:37:35.733Z,84.74
2016-08-08T00:38:35.731Z,84.64
2016-08-08T00:39:36.837Z,84.26
2016-08-08T00:40:35.780Z,83.97
2016-08-08T00:42:36.137Z,84.16
2016-08-08T00:43:35.720Z,83.97
2016-08-08T00:44:35.816Z,84.12
2016-08-08T00:45:35.710Z,84.26
2016-08-08T00:46:35.711Z,83.83
2016-08-08T00:47:35.710Z,83.93
2016-08-08T00:48:35.705Z,83.97
2016-08-08T00:49:37.570Z,83.83
2016-08-08T00:50:36.005Z,84.12
2016-08-08T00:51:35.703Z,84.59
2016-08-08T00:52:36.119Z,84.22
2016-08-08T00:53:35.847Z,84.22
2016-08-08T00:54:35.695Z,84.22
2016-08-08T00:55:35.690Z,84.5
2016-08-08T00:56:35.685Z,84.41
2016-08-08T00:57:35.685Z,84.98
2016-08-08T00:58:35.680Z,84.98
2016-08-08T00:59:35.680Z,85.17
2016-08-08T01:00:36.055Z,84.79
2016-08-08T01:01:36.429Z,84.88
2016-08-08T01:02:36.974Z,84.79
2016-08-08T01:03:35.670Z,84.59
2016-08-08T01:04:35.672Z,85.08
2016-08-08T01:05:36.130Z,85.46
2016-08-08T01:06:35.663Z,85.65
2016-08-08T01:07:35.663Z,85.84
2016-08-08T01:08:35.660Z,85.46
2016-08-08T01:10:36.119Z,85.46
2016-08-08T01:12:36.216Z,85.36
2016-08-08T01:13:36.718Z,85.27
2016-08-08T01:15:35.632Z,85.65
2016-08-08T01:16:35.637Z,85.17
2016-08-08T01:17:35.629Z,86.22
2016-08-08T01:18:35.624Z,85.32
2016-08-08T01:19:35.628Z,85.84
2016-08-08T01:20:35.623Z,86.18
2016-08-08T01:21:35.620Z,86.13
2016-08-08T01:22:35.615Z,85.65
2016-08-08T01:23:35.614Z,85.75
2016-08-08T01:24:35.610Z,86.04
2016-08-08T01:25:35.616Z,85.99
2016-08-08T01:26:35.607Z,86.04
2016-08-08T01:27:35.601Z,86.37
2016-08-08T01:28:35.601Z,86.32
2016-08-08T01:29:35.592Z,86.51
2016-08-08T01:30:35.594Z,86.41
2016-08-08T01:31:35.590Z,86.28
2016-08-08T01:32:35.582Z,86.41
2016-08-08T01:33:35.583Z,86.57
2016-08-08T01:34:35.578Z,85.99
2016-08-08T01:35:35.582Z,86.51
2016-08-08T01:36:35.573Z,86.61
2016-08-08T01:37:35.570Z,86.57
2016-08-08T01:38:35.571Z,86.28
2016-08-08T01:39:35.574Z,86.51
2016-08-08T01:40:35.566Z,86.32
2016-08-08T01:41:35.558Z,86.8
2016-08-08T01:42:35.558Z,86.8
2016-08-08T01:43:35.552Z,86.85
2016-08-08T01:44:35.554Z,86.7
2016-08-08T01:45:35.545Z,86.94
2016-08-08T01:46:35.546Z,86.9
2016-08-08T01:47:35.540Z,86.85
2016-08-08T01:48:35.541Z,87.18
2016-08-08T01:49:35.535Z,86.85
2016-08-08T01:50:35.530Z,86.8
2016-08-08T01:51:35.537Z,86.9
2016-08-08T01:52:35.525Z,86.9
2016-08-08T01:53:35.530Z,86.85
2016-08-08T01:54:35.522Z,86.8
2016-08-08T01:55:35.516Z,86.9
2016-08-08T01:56:35.517Z,86.99
2016-08-08T01:57:35.512Z,86.8
2016-08-08T01:58:35.864Z,86.9
2016-08-08T01:59:35.758Z,86.61
2016-08-08T02:00:35.506Z,86.61
2016-08-08T02:01:35.503Z,86.51
2016-08-08T02:02:35.497Z,87.08
2016-08-08T02:03:35.699Z,86.99
2016-08-08T02:04:35.492Z,87.18
2016-08-08T02:05:35.489Z,87.37
2016-08-08T02:06:35.489Z,87.27
2016-08-08T02:07:36.485Z,87.37
2016-08-08T02:08:35.784Z,87.08
2016-08-08T02:09:35.482Z,87.33
2016-08-08T02:10:36.025Z,86.94
2016-08-08T02:11:35.476Z,86.94
2016-08-08T02:12:35.922Z,87.37
2016-08-08T02:13:35.470Z,87.47
2016-08-08T02:14:35.462Z,87.47
2016-08-08T02:15:35.460Z,87.37
2016-08-08T02:16:35.459Z,87.23
2016-08-08T02:17:35.453Z,87.9
2016-08-08T02:18:35.458Z,87.37
2016-08-08T02:19:36.008Z,87.52
2016-08-08T02:20:35.570Z,87.52
2016-08-08T02:21:36.872Z,87.85
2016-08-08T02:22:35.445Z,87.56
2016-08-08T02:23:36.134Z,87.95
2016-08-08T02:24:35.871Z,87.56
2016-08-08T02:25:35.435Z,87.52
2016-08-08T02:26:35.437Z,87.81
2016-08-08T02:27:35.424Z,87.71
2016-08-08T02:29:37.085Z,88
2016-08-08T02:30:35.480Z,87.71
2016-08-08T02:31:35.422Z,87.62
2016-08-08T02:32:35.411Z,87.43
2016-08-08T02:33:35.743Z,87.71
2016-08-08T02:34:35.409Z,88.09
2016-08-08T02:35:35.407Z,88.09
2016-08-08T02:36:35.408Z,88.09
2016-08-08T02:37:35.400Z,88.19
2016-08-08T02:38:35.394Z,87.9
2016-08-08T02:39:35.394Z,88.19
2016-08-08T02:40:35.387Z,88.29
2016-08-08T02:41:35.385Z,87.81
2016-08-08T02:42:35.383Z,88.29
2016-08-08T02:43:35.378Z,88.29
2016-08-08T02:44:35.383Z,88.19
2016-08-08T02:45:35.375Z,88.19
2016-08-08T02:46:35.376Z,88.19
2016-08-08T02:47:35.372Z,88
2016-08-08T02:48:35.368Z,88.09
2016-08-08T02:49:35.365Z,88.09
2016-08-08T02:50:35.357Z,88.09
2016-08-08T02:51:35.360Z,88.19
2016-08-08T02:52:35.355Z,88
2016-08-08T02:53:35.348Z,87.81
2016-08-08T02:54:35.344Z,87.9
2016-08-08T02:55:35.348Z,88.19
2016-08-08T02:56:35.340Z,88.33
2016-08-08T02:57:35.343Z,88.13
2016-08-08T02:58:35.339Z,88.23
2016-08-08T02:59:35.336Z,87.76
2016-08-08T03:00:35.329Z,87.95
2016-08-08T03:01:35.329Z,88.62
2016-08-08T03:02:35.328Z,88.13
2016-08-08T03:03:35.328Z,87.56
2016-08-08T03:04:35.320Z,88.43
2016-08-08T03:05:35.317Z,88.04
2016-08-08T03:06:35.314Z,88.43
2016-08-08T03:07:35.311Z,87.56
2016-08-08T03:08:35.310Z,87.76
2016-08-08T03:09:35.301Z,88.04
2016-08-08T03:10:35.301Z,88.71
2016-08-08T03:11:35.297Z,87.37
2016-08-08T03:12:35.300Z,88.13
2016-08-08T03:13:35.295Z,88.33
2016-08-08T03:14:35.292Z,88.33
2016-08-08T03:15:35.283Z,88.23
2016-08-08T03:16:35.339Z,88.52
2016-08-08T03:17:51.047Z,88.13
2016-08-08T03:18:35.275Z,87.95
2016-08-08T03:19:35.973Z,88.13
2016-08-08T03:20:35.290Z,88.13
2016-08-08T03:21:35.271Z,88.23
2016-08-08T03:22:35.270Z,88.23
2016-08-08T03:23:35.271Z,88.33
2016-08-08T03:24:35.261Z,88.13
2016-08-08T03:25:35.558Z,87.9
2016-08-08T03:26:35.257Z,88.19
2016-08-08T03:27:36.052Z,88.09
2016-08-08T03:28:35.709Z,88.76
2016-08-08T03:29:35.252Z,88.9
2016-08-08T03:30:35.444Z,88.67
2016-08-08T03:31:35.238Z,88.67
2016-08-08T03:32:35.248Z,88.57
2016-08-08T03:33:35.233Z,89.43
2016-08-08T03:34:35.231Z,89.24
2016-08-08T03:35:35.229Z,89.15
2016-08-08T03:36:35.221Z,89.34
2016-08-08T03:37:36.828Z,89.34
2016-08-08T03:38:35.216Z,89.34
2016-08-08T03:39:35.894Z,89.24
2016-08-08T03:40:35.217Z,88.95
2016-08-08T03:41:35.220Z,88.95
2016-08-08T03:42:35.202Z,89.15
2016-08-08T03:43:35.205Z,89.15
2016-08-08T03:44:35.208Z,89.62
2016-08-08T03:45:35.196Z,89.34
2016-08-08T03:46:36.151Z,89.34
2016-08-08T03:47:37.052Z,89.43
2016-08-08T03:48:35.191Z,89.62
2016-08-08T03:49:35.191Z,89.72
2016-08-08T03:50:35.182Z,89.24
2016-08-08T03:51:35.183Z,89.91
2016-08-08T03:52:35.182Z,89.91
2016-08-08T03:53:35.398Z,90.01
2016-08-08T03:54:35.175Z,90.1
2016-08-08T03:55:35.172Z,89.72
2016-08-08T03:56:35.166Z,89.81
2016-08-08T03:57:35.165Z,89.81
2016-08-08T03:58:35.162Z,89.62
2016-08-08T03:59:35.154Z,89.91
2016-08-08T04:00:35.155Z,89.62
2016-08-08T04:01:35.155Z,90.24
2016-08-08T04:02:35.149Z,89.86
2016-08-08T04:03:35.143Z,89.67
2016-08-08T04:04:35.138Z,89.86
2016-08-08T04:05:35.139Z,89.58
2016-08-08T04:06:35.146Z,89.86
2016-08-08T04:07:35.132Z,90.05
2016-08-08T04:08:35.133Z,90.05
2016-08-08T04:09:35.125Z,89.29
2016-08-08T04:10:35.128Z,89.76
2016-08-08T04:11:35.122Z,89.19
2016-08-08T04:12:35.120Z,89.58
2016-08-08T04:13:35.116Z,89.33
2016-08-08T04:14:35.119Z,89.14
2016-08-08T04:15:35.820Z,89.52
2016-08-08T04:16:35.110Z,89.23
2016-08-08T04:17:35.112Z,88.32
2016-08-08T04:18:35.108Z,87.84
2016-08-08T04:19:35.104Z,88.37
2016-08-08T04:20:35.102Z,88.08
2016-08-08T04:21:35.100Z,87.74
2016-08-08T04:22:35.093Z,87.74
2016-08-08T04:23:35.095Z,87.07
2016-08-08T04:24:35.089Z,86.82
2016-08-08T04:25:35.089Z,86.44
2016-08-08T04:26:35.087Z,86.48
2016-08-08T04:27:35.092Z,85.71
2016-08-08T04:28:35.088Z,85.57
2016-08-08T04:29:35.084Z,84.51
2016-08-08T04:30:35.081Z,83.97
2016-08-08T04:31:35.080Z,82.96
2016-08-08T04:32:35.085Z,82.67
2016-08-08T04:33:35.083Z,81.84
2016-08-08T04:34:35.081Z,80.98
2016-08-08T04:35:35.883Z,80.44
2016-08-08T04:36:35.085Z,79.28
2016-08-08T04:37:35.082Z,79.1
2016-08-08T04:38:35.084Z,78.75
2016-08-08T04:39:35.087Z,78.56
2016-08-08T04:40:35.085Z,78.17
2016-08-08T04:41:35.082Z,77.63
2016-08-08T04:42:35.086Z,77.44
2016-08-08T04:43:35.287Z,77.06
2016-08-08T04:44:35.086Z,76.51
2016-08-08T04:45:35.087Z,75.65
2016-08-08T04:46:35.091Z,75.26
2016-08-08T04:47:35.098Z,75.55
2016-08-08T04:48:35.095Z,75.26
2016-08-08T04:49:35.549Z,74.68
2016-08-08T04:50:35.402Z,74.58
2016-08-08T04:51:35.104Z,74.1
2016-08-08T04:52:35.106Z,74.01
2016-08-08T04:53:35.102Z,74.2
2016-08-08T04:54:35.106Z,74.3
2016-08-08T04:55:35.551Z,74.16
2016-08-08T04:56:35.171Z,74.16
2016-08-08T04:57:35.105Z,73.88
2016-08-08T04:58:35.112Z,74.26
2016-08-08T04:59:36.015Z,74.55
2016-08-08T05:00:35.123Z,74.65
2016-08-08T05:01:35.115Z,74.36
2016-08-08T05:02:35.122Z,74.16
2016-08-08T05:03:35.118Z,73.97
2016-08-08T05:04:37.061Z,74.1
2016-08-08T05:05:35.131Z,74.1
2016-08-08T05:06:36.208Z,73.27
2016-08-08T05:07:35.130Z,72.69
2016-08-08T05:08:35.606Z,72.15
2016-08-08T05:09:35.132Z,71.51
2016-08-08T05:10:35.138Z,70.54
2016-08-08T05:11:35.143Z,69.62
2016-08-08T05:13:35.150Z,68.65
2016-08-08T05:14:35.147Z,68.36
2016-08-08T05:15:35.160Z,67.82
2016-08-08T05:16:35.160Z,68.4
2016-08-08T05:17:35.162Z,67.75
2016-08-08T05:18:35.171Z,67.3
2016-08-08T05:19:35.179Z,66.43
2016-08-08T05:20:35.181Z,66.08
2016-08-08T05:22:35.191Z,65.27
2016-08-08T05:23:35.202Z,64.3
2016-08-08T05:24:35.198Z,63.37
2016-08-08T05:25:35.209Z,62.43
2016-08-08T05:26:35.208Z,62.16
2016-08-08T05:28:35.226Z,60.48
2016-08-08T05:29:35.231Z,60.22
2016-08-08T05:30:35.239Z,59.34
2016-08-08T05:31:35.251Z,58.59
2016-08-08T05:32:35.254Z,57.17
2016-08-08T05:33:35.262Z,56.12
2016-08-08T05:34:35.271Z,56.22
2016-08-08T05:35:35.278Z,55.27
2016-08-08T05:36:35.287Z,54.21
2016-08-08T05:37:35.298Z,53.55
2016-08-08T05:38:35.303Z,52.87
2016-08-08T05:39:35.312Z,52.12
2016-08-08T05:40:35.320Z,51.07
2016-08-08T05:41:35.330Z,50.78
2016-08-08T05:43:35.356Z,49.54
2016-08-08T05:44:35.361Z,48.49
2016-08-08T05:45:35.368Z,48.02
2016-08-08T05:46:35.381Z,47.07
2016-08-08T05:47:35.403Z,47.27
2016-08-08T05:48:35.398Z,46.31
2016-08-08T05:49:35.427Z,45.65
2016-08-08T05:50:35.423Z,45.16
2016-08-08T05:51:35.430Z,44.3
2016-08-08T05:53:35.958Z,44.28
2016-08-08T05:54:35.463Z,44.18
2016-08-08T05:55:35.625Z,44.28
2016-08-08T05:56:35.941Z,44.55
2016-08-08T05:57:35.497Z,44.94
2016-08-08T05:58:35.606Z,44.84
2016-08-08T05:59:35.513Z,44.82
2016-08-08T06:00:35.530Z,44.82
2016-08-08T06:01:35.540Z,44.53
2016-08-08T06:02:35.548Z,44.6
2016-08-08T06:03:35.554Z,45.09
2016-08-08T06:04:36.258Z,45.46
2016-08-08T06:05:35.983Z,45.36
2016-08-08T06:06:35.584Z,44.09
2016-08-08T06:07:35.595Z,44.27
2016-08-08T06:08:35.608Z,44.73
2016-08-08T06:09:35.612Z,45.12
2016-08-08T06:10:35.626Z,45.49
2016-08-08T06:11:36.328Z,45.49
2016-08-08T06:12:35.641Z,45.88
2016-08-08T06:13:36.385Z,46.25
2016-08-08T06:14:35.664Z,46.44
2016-08-08T06:15:37.231Z,46.76
2016-08-08T06:16:35.681Z,46.37
2016-08-08T06:17:35.706Z,45.88
2016-08-08T06:18:35.949Z,46.59
2016-08-08T06:19:35.706Z,45.81
2016-08-08T06:20:35.719Z,45.03
2016-08-08T06:21:35.757Z,44.85
2016-08-08T06:22:35.769Z,44.76
2016-08-08T06:23:36.852Z,44.38
2016-08-08T06:24:35.872Z,44.38
2016-08-08T06:25:36.795Z,44.21
2016-08-08T06:26:36.430Z,43.95
2016-08-08T06:27:36.528Z,43.16
2016-08-08T06:28:35.799Z,43.08
2016-08-08T06:29:35.806Z,42.42
2016-08-08T06:30:35.821Z,42.4
2016-08-08T06:31:35.833Z,41.91
2016-08-08T06:32:35.841Z,41.74
2016-08-08T06:33:35.855Z,41.33
2016-08-08T06:34:35.862Z,41.52
2016-08-08T06:35:35.870Z,41.62
2016-08-08T06:36:35.882Z,41.64
2016-08-08T06:37:35.901Z,41.25
2016-08-08T06:38:35.907Z,41.54
2016-08-08T06:39:35.914Z,41.25
2016-08-08T06:40:35.931Z,41.25
2016-08-08T06:41:35.941Z,41.56
2016-08-08T06:42:35.954Z,41.29
2016-08-08T06:43:35.964Z,38.84
2016-08-08T06:44:35.971Z,39.04
2016-08-08T06:45:35.985Z,39.82
2016-08-08T06:46:35.997Z,39.94
2016-08-08T06:47:36.010Z,39.47
2016-08-08T06:48:36.023Z,39.69
2016-08-08T06:49:36.035Z,39.11
2016-08-08T06:50:36.048Z,38.37
2016-08-08T06:51:36.064Z,38.09
2016-08-08T06:52:36.074Z,38.01
2016-08-08T06:53:36.090Z,37.82
2016-08-08T06:54:36.104Z,35.28
2016-08-08T06:55:36.121Z,35.18
2016-08-08T06:56:36.132Z,35.67
2016-08-08T06:57:36.144Z,35.39
2016-08-08T06:58:36.157Z,35.3
2016-08-08T06:59:36.172Z,35.21
2016-08-08T07:00:36.186Z,34.72
2016-08-08T07:01:36.219Z,35.33
2016-08-08T07:02:36.223Z,35.25
2016-08-08T07:03:36.237Z,34.87
2016-08-08T07:04:36.254Z,33.8
2016-08-08T07:05:36.371Z,33.74
2016-08-08T07:06:36.283Z,33.16
2016-08-08T07:07:36.301Z,32.09
2016-08-08T07:08:36.335Z,31.5
2016-08-08T07:09:36.335Z,31.81
2016-08-08T07:10:36.358Z,31.81
2016-08-08T07:12:36.988Z,29.77
2016-08-08T07:13:36.406Z,29.07
2016-08-08T07:14:37.124Z,28.59
2016-08-08T07:15:36.992Z,29.17
2016-08-08T07:16:36.464Z,29.58
2016-08-08T07:17:36.531Z,29.1
2016-08-08T07:18:36.502Z,28.32
2016-08-08T07:19:36.521Z,28.93
2016-08-08T07:20:37.393Z,27.95
2016-08-08T07:21:36.568Z,28.17
2016-08-08T07:22:36.576Z,28.17
2016-08-08T07:23:37.100Z,27.19
2016-08-08T07:24:37.070Z,26.5
2016-08-08T07:25:36.693Z,26.52
2016-08-08T07:26:36.657Z,25.32
2016-08-08T07:27:36.677Z,25.21
2016-08-08T07:28:36.697Z,25.23
2016-08-08T07:29:36.724Z,24.42
2016-08-08T07:30:36.742Z,24.32
2016-08-08T07:31:36.765Z,23.82
2016-08-08T07:32:38.691Z,24.71
2016-08-08T07:33:38.382Z,24.79
2016-08-08T07:34:37.776Z,25.09
2016-08-08T07:35:37.874Z,25.1
2016-08-08T07:36:37.723Z,25
2016-08-08T07:37:37.063Z,24.51
2016-08-08T07:38:36.912Z,24.71
2016-08-08T07:39:36.920Z,24.1
2016-08-08T07:40:36.937Z,25.07
2016-08-08T07:41:36.958Z,25.35
2016-08-08T07:42:37.242Z,24.65
2016-08-08T07:43:37.210Z,24.92
2016-08-08T07:44:37.808Z,25.5
2016-08-08T07:45:37.027Z,26.38
2016-08-08T07:46:37.048Z,26.87
2016-08-08T07:47:37.071Z,26.77
2016-08-08T07:48:37.084Z,26.87
2016-08-08T07:49:37.104Z,27.07
2016-08-08T07:50:37.117Z,27.26
2016-08-08T07:51:37.137Z,27.96
2016-08-08T07:52:37.152Z,28.16
2016-08-08T07:53:37.170Z,28.25
2016-08-08T07:54:37.186Z,28.17
2016-08-08T07:55:37.202Z,27.87
2016-08-08T07:56:37.230Z,28.06
2016-08-08T07:57:37.234Z,28.06
2016-08-08T07:58:37.250Z,28.55
2016-08-08T07:59:37.264Z,28.06
2016-08-08T08:00:37.279Z,27.86
2016-08-08T08:01:37.300Z,28.14
2016-08-08T08:02:37.311Z,27.94
2016-08-08T08:03:37.325Z,28.33
2016-08-08T08:04:37.349Z,28.42
2016-08-08T08:05:37.462Z,28.7
2016-08-08T08:06:37.375Z,28.99
2016-08-08T08:07:37.388Z,28.97
2016-08-08T08:08:37.403Z,29.57
2016-08-08T08:09:37.418Z,30.04
2016-08-08T08:10:37.432Z,29.63
2016-08-08T08:11:37.447Z,29.92
2016-08-08T08:12:37.462Z,30.88
2016-08-08T08:13:37.474Z,31.38
2016-08-08T08:14:37.491Z,31.77
2016-08-08T08:15:37.503Z,31.57
2016-08-08T08:16:37.521Z,31.59
2016-08-08T08:17:37.534Z,31.49
2016-08-08T08:18:37.545Z,31.2
2016-08-08T08:19:37.556Z,31.41
2016-08-08T08:20:37.573Z,31.39
2016-08-08T08:21:37.585Z,31.38
2016-08-08T08:22:37.601Z,31.97
2016-08-08T08:23:37.614Z,31.76
2016-08-08T08:24:37.628Z,31.94
2016-08-08T08:25:37.643Z,31.84
2016-08-08T08:26:37.650Z,32.71
2016-08-08T08:27:37.665Z,32.89
2016-08-08T08:28:37.685Z,33.46
2016-08-08T08:29:38.145Z,33.46
2016-08-08T08:30:38.657Z,33.54
2016-08-08T08:31:37.713Z,33.72
2016-08-08T08:32:37.732Z,34.41
2016-08-08T08:33:37.738Z,34.7
2016-08-08T08:34:37.755Z,34.98
2016-08-08T08:35:37.759Z,35.17
2016-08-08T08:36:37.779Z,35.45
2016-08-08T08:37:37.797Z,35.35
2016-08-08T08:38:39.052Z,35.93
2016-08-08T08:39:38.156Z,36.32
2016-08-08T08:40:37.817Z,36.69
2016-08-08T08:41:37.829Z,37.08
2016-08-08T08:42:38.191Z,37.08
2016-08-08T08:43:37.848Z,37.55
2016-08-08T08:44:38.064Z,37.35
2016-08-08T08:45:38.575Z,37.75
2016-08-08T08:46:37.886Z,37.65
2016-08-08T08:47:37.892Z,37.85
2016-08-08T08:48:37.904Z,37.83
2016-08-08T08:49:37.908Z,38.12
2016-08-08T08:50:39.275Z,38.79
2016-08-08T08:51:39.700Z,38.79
2016-08-08T08:52:37.938Z,38.96
2016-08-08T08:53:38.576Z,39.36
2016-08-08T08:54:37.958Z,39.06
2016-08-08T08:55:38.392Z,40.31
2016-08-08T08:56:37.977Z,40.5
2016-08-08T08:57:38.072Z,40.43
2016-08-08T08:58:38.002Z,40.53
2016-08-08T08:59:38.006Z,40.43
2016-08-08T09:00:38.943Z,40.33
2016-08-08T09:01:39.589Z,40.53
2016-08-08T09:02:38.713Z,39.65
2016-08-08T09:03:39.553Z,40.53
2016-08-08T09:04:38.052Z,40.53
2016-08-08T09:05:38.059Z,40.53
2016-08-08T09:06:38.070Z,40.63
2016-08-08T09:07:38.084Z,40.63
2016-08-08T09:08:38.086Z,40.63
2016-08-08T09:09:38.103Z,40.63
2016-08-08T09:10:38.112Z,40.43
2016-08-08T09:11:38.113Z,40.43
2016-08-08T09:12:38.131Z,39.96
2016-08-08T09:14:38.756Z,40.45
2016-08-08T09:15:39.678Z,40.45
2016-08-08T09:16:38.164Z,40.35
2016-08-08T09:17:38.172Z,40.06
2016-08-08T09:18:38.179Z,40.06
2016-08-08T09:19:38.200Z,39.57
2016-08-08T09:20:38.202Z,40.06
2016-08-08T09:21:38.212Z,39.57
2016-08-08T09:22:38.221Z,39.98
2016-08-08T09:23:38.231Z,39.69
2016-08-08T09:24:38.239Z,39.98
2016-08-08T09:25:38.246Z,39.39
2016-08-08T09:26:38.255Z,39.49
2016-08-08T09:27:38.272Z,39.2
2016-08-08T09:28:38.277Z,39.39
2016-08-08T09:29:38.291Z,39.39
2016-08-08T09:30:38.312Z,39.1
2016-08-08T09:31:38.311Z,39.2
2016-08-08T09:32:38.315Z,39.57
2016-08-08T09:33:38.326Z,39.37
2016-08-08T09:34:38.332Z,39.67
2016-08-08T09:35:38.345Z,39.49
2016-08-08T09:36:38.351Z,39.29
2016-08-08T09:37:38.365Z,39.49
2016-08-08T09:38:38.371Z,39.49
2016-08-08T09:39:38.382Z,39.69
2016-08-08T09:40:38.393Z,39.2
2016-08-08T09:41:38.401Z,39.29
2016-08-08T09:42:38.411Z,39.2
2016-08-08T09:43:38.424Z,39.2
2016-08-08T09:44:38.427Z,39.59
2016-08-08T09:45:38.437Z,39.98
2016-08-08T09:46:38.448Z,39.88
2016-08-08T09:47:38.959Z,40.25
2016-08-08T09:48:39.080Z,40.45
2016-08-08T09:49:54.194Z,40.45
2016-08-08T09:50:39.138Z,40.55
2016-08-08T09:51:38.492Z,40.16
2016-08-08T09:52:38.658Z,40.25
2016-08-08T09:53:38.516Z,40.45
2016-08-08T09:54:38.519Z,40.16
2016-08-08T09:55:38.531Z,40.55
2016-08-08T09:56:52.915Z,40.55
2016-08-08T09:58:39.466Z,40.06
2016-08-08T09:59:39.424Z,40.45
2016-08-08T10:00:39.137Z,40.64
2016-08-08T10:01:38.589Z,40.74
2016-08-08T10:02:38.596Z,40.53
2016-08-08T10:03:38.620Z,40.53
2016-08-08T10:04:38.615Z,40.92
2016-08-08T10:05:39.469Z,40.53
2016-08-08T10:06:38.636Z,41.28
2016-08-08T10:07:38.648Z,41.67
2016-08-08T10:08:39.900Z,41.48
2016-08-08T10:09:39.150Z,41.75
2016-08-08T10:10:38.669Z,41.75
2016-08-08T10:11:38.679Z,42.05
2016-08-08T10:12:39.473Z,42.14
2016-08-08T10:14:38.704Z,42.51
2016-08-08T10:15:38.719Z,42.51
2016-08-08T10:16:38.754Z,42.8
2016-08-08T10:17:38.740Z,42.79
2016-08-08T10:18:40.037Z,43.27
2016-08-08T10:19:38.753Z,43.47
2016-08-08T10:20:38.772Z,43.76
2016-08-08T10:21:42.545Z,43.85
2016-08-08T10:22:38.772Z,43.85
2016-08-08T10:23:38.781Z,44.05
2016-08-08T10:24:38.794Z,44.05
2016-08-08T10:25:38.803Z,44.15
2016-08-08T10:26:38.810Z,44.15
2016-08-08T10:27:39.826Z,44.05
2016-08-08T10:29:38.837Z,44.05
2016-08-08T10:30:38.843Z,44.15
2016-08-08T10:31:38.853Z,44.05
2016-08-08T10:32:38.856Z,44.05
2016-08-08T10:33:38.862Z,44.23
2016-08-08T10:34:38.869Z,44.15
2016-08-08T10:35:38.881Z,43.93
2016-08-08T10:36:38.889Z,44.13
2016-08-08T10:37:38.895Z,44.32
2016-08-08T10:38:38.905Z,44.32
2016-08-08T10:39:38.909Z,44.23
2016-08-08T10:40:38.917Z,44.23
2016-08-08T10:41:38.938Z,44.42
2016-08-08T10:42:38.932Z,44.42
2016-08-08T10:44:38.947Z,44.4
2016-08-08T10:45:38.955Z,44.59
2016-08-08T10:46:38.964Z,44.69
2016-08-08T10:47:38.973Z,44.89
2016-08-08T10:48:38.985Z,45.28
2016-08-08T10:49:38.990Z,45.37
2016-08-08T10:50:39.014Z,45.18
2016-08-08T10:51:39.006Z,45.08
2016-08-08T10:52:39.013Z,44.79
2016-08-08T10:53:39.017Z,44.98
2016-08-08T10:54:39.029Z,44.4
2016-08-08T10:55:39.035Z,44.01
2016-08-08T10:56:39.038Z,43.91
2016-08-08T10:57:39.051Z,43.62
2016-08-08T10:59:39.060Z,43.23
2016-08-08T11:00:39.073Z,43.33
2016-08-08T11:01:39.083Z,42.94
2016-08-08T11:02:39.084Z,42.55
2016-08-08T11:03:39.091Z,42.84
2016-08-08T11:04:39.101Z,43.33
2016-08-08T11:05:41.059Z,43.04
2016-08-08T11:06:39.368Z,43.13
2016-08-08T11:07:39.318Z,43.71
2016-08-08T11:08:39.525Z,43.23
2016-08-08T11:09:39.130Z,43.15
2016-08-08T11:10:39.138Z,42.38
2016-08-08T11:11:39.144Z,42.76
2016-08-08T11:12:39.154Z,42.18
2016-08-08T11:13:39.159Z,42.4
2016-08-08T11:14:39.568Z,42.4
2016-08-08T11:15:40.233Z,42.1
2016-08-08T11:16:39.181Z,42.49
2016-08-08T11:17:39.743Z,42.1
2016-08-08T11:18:39.202Z,41.61
2016-08-08T11:19:39.207Z,41.61
2016-08-08T11:20:39.216Z,41.42
2016-08-08T11:21:39.268Z,41.54
2016-08-08T11:22:39.228Z,41.44
2016-08-08T11:23:39.237Z,41.35
2016-08-08T11:24:39.250Z,40.76
2016-08-08T11:25:39.250Z,40.47
2016-08-08T11:26:40.043Z,40.56
2016-08-08T11:27:40.062Z,40.37
2016-08-08T11:28:40.367Z,40.27
2016-08-08T11:29:40.501Z,40.47
2016-08-08T11:30:40.283Z,40.66
2016-08-08T11:31:39.299Z,40.37
2016-08-08T11:32:39.310Z,39.49
2016-08-08T11:33:39.316Z,39.98
2016-08-08T11:34:39.435Z,39.78
2016-08-08T11:35:39.334Z,39.39
2016-08-08T11:36:40.932Z,39.2
2016-08-08T11:37:39.640Z,39.18
2016-08-08T11:38:40.342Z,39.29
2016-08-08T11:39:39.363Z,39.2
2016-08-08T11:40:39.440Z,39.59
2016-08-08T11:41:39.376Z,39.28
2016-08-08T11:42:39.705Z,39.18
2016-08-08T11:43:39.391Z,39.18
2016-08-08T11:44:39.399Z,39.37
2016-08-08T11:45:39.413Z,39.28
2016-08-08T11:46:39.417Z,39.37
2016-08-08T11:47:39.428Z,39.18
2016-08-08T11:48:39.432Z,39.08
2016-08-08T11:49:39.441Z,39.18
2016-08-08T11:50:39.445Z,39.86
2016-08-08T11:51:39.453Z,39.96
2016-08-08T11:52:39.466Z,39.47
2016-08-08T11:53:39.482Z,39.57
2016-08-08T11:54:39.474Z,39.47
2016-08-08T11:55:39.482Z,39.16
2016-08-08T11:56:39.513Z,39.57
2016-08-08T11:57:39.501Z,39.16
2016-08-08T11:58:39.509Z,39.16
2016-08-08T11:59:39.511Z,39.65
2016-08-08T12:00:39.524Z,39.75
2016-08-08T12:01:39.527Z,39.06
2016-08-08T12:02:39.537Z,39.36
2016-08-08T12:03:39.543Z,39.36
2016-08-08T12:04:39.551Z,39.36
2016-08-08T12:05:39.604Z,39.47
2016-08-08T12:06:39.561Z,38.98
2016-08-08T12:07:39.570Z,38.3
2016-08-08T12:08:39.577Z,38.3
2016-08-08T12:09:40.284Z,38.1
2016-08-08T12:10:39.593Z,38.4
2016-08-08T12:11:39.605Z,38.3
2016-08-08T12:12:39.607Z,38.4
2016-08-08T12:13:39.621Z,37.91
2016-08-08T12:14:39.623Z,38.4
2016-08-08T12:15:39.626Z,38.49
2016-08-08T12:16:39.636Z,38.61
2016-08-08T12:17:39.646Z,38.02
2016-08-08T12:18:39.662Z,37.93
2016-08-08T12:19:39.661Z,37.83
2016-08-08T12:20:39.671Z,38.12
2016-08-08T12:21:39.679Z,37.73
2016-08-08T12:22:39.686Z,37.45
2016-08-08T12:23:54.607Z,36.76
2016-08-08T12:24:39.698Z,36.96
2016-08-08T12:25:40.356Z,37.54
2016-08-08T12:26:39.714Z,37.27
2016-08-08T12:27:39.719Z,36.39
2016-08-08T12:28:39.726Z,36.39
2016-08-08T12:29:39.886Z,35.8
2016-08-08T12:30:39.999Z,35.22
2016-08-08T12:31:39.747Z,34.92
2016-08-08T12:32:39.759Z,35.41
2016-08-08T12:33:40.719Z,35.12
2016-08-08T12:35:39.787Z,34.73
2016-08-08T12:36:40.236Z,34.92
2016-08-08T12:37:40.044Z,34.83
2016-08-08T12:38:39.800Z,34.83
2016-08-08T12:39:39.814Z,35.02
2016-08-08T12:40:39.821Z,34.92
2016-08-08T12:41:39.823Z,35.12
2016-08-08T12:42:39.834Z,34.92
2016-08-08T12:43:39.842Z,34.92
2016-08-08T12:44:40.137Z,34.94
2016-08-08T12:45:41.111Z,34.55
2016-08-08T12:46:40.100Z,33.48
2016-08-08T12:47:40.904Z,33.77
2016-08-08T12:48:40.569Z,33.58
2016-08-08T12:49:39.916Z,33.48
2016-08-08T12:50:39.896Z,33.48
2016-08-08T12:51:39.908Z,33.18
2016-08-08T12:52:39.911Z,32.7
2016-08-08T12:53:39.924Z,32.21
2016-08-08T12:54:40.128Z,32.01
2016-08-08T12:55:41.669Z,32.11
2016-08-08T12:56:40.921Z,32.01
2016-08-08T12:57:40.866Z,32.5
2016-08-08T12:58:40.542Z,32.21
2016-08-08T12:59:39.963Z,32.79
2016-08-08T13:00:40.042Z,32.79
2016-08-08T13:01:39.985Z,32.97
2016-08-08T13:02:40.002Z,33.26
2016-08-08T13:03:39.997Z,33.46
2016-08-08T13:04:40.010Z,33.65
2016-08-08T13:05:40.265Z,34.14
2016-08-08T13:06:40.020Z,34.44
2016-08-08T13:07:40.036Z,34.73
2016-08-08T13:08:40.037Z,34.92
2016-08-08T13:09:40.050Z,34.91
2016-08-08T13:10:40.059Z,35.1
2016-08-08T13:11:40.060Z,34.81
2016-08-08T13:12:40.071Z,35.1
2016-08-08T13:13:40.081Z,35.2
2016-08-08T13:14:40.090Z,35.18
2016-08-08T13:15:40.095Z,34.79